Time;durP1;ratioP1;P1;durP2;ratioP2;P2;SDS_P1;SDS_P2;PMS_P1;PMS_P2;Temp;Humidity;BMP_temperature;BMP_pressure;BME280_temperature;BME280_humidity;BME280_pressure;Samples;Min_cycle;Max_cycle;Signal;HPM_P1;HPM_P2
2023/04/01 00:00:09;;;;;;;;;;;;;;;;;;2213000;66;1841;-25
2023/04/01 00:02:40;;;;;;;;;;;;;;;;;;2216356;66;2000;-25
2023/04/01 00:05:11;;;;;;;;;;;;;;;;;;2211900;58;1333;-25
2023/04/01 00:07:41;;;;;;;;;;;;;;;;;;2216266;66;1473;-25
2023/04/01 00:10:12;;;;;;;;;;;;;;;;;;2215938;58;1568;-25
2023/04/01 00:12:43;;;;;;;;;;;;;;;;;;2216274;66;1329;-23
2023/04/01 00:15:13;;;;;;;;;;;;;;;;;;2211715;66;1544;-23
2023/04/01 00:17:44;;;;;;;;;;;;;;;;;;2213606;66;1408;-23
2023/04/01 00:20:15;;;;;;;;;;;;;;;;;;2215712;66;1488;-25
2023/04/01 00:22:45;;;;;;;;;;;;;;;;;;2215731;58;1947;-25
2023/04/01 00:25:15;;;;;;;;;;;;;;;;;;2215638;66;1442;-25
2023/04/01 00:27:46;;;;;;;;;;;;;;;;;;2216245;66;1533;-25
2023/04/01 00:30:16;;;;;;;;;;;;;;;;;;2215788;66;1130;-25
2023/04/01 00:32:46;;;;;;;;;;;;;;;;;;2212666;66;1308;-25
2023/04/01 00:35:19;;;;;;;;;;;;;;;;;;2215280;66;1545;-25
2023/04/01 00:37:50;;;;;;;;;;;;;;;;;;2217168;66;1158;-25
2023/04/01 00:40:32;;;;;;;;;;;;;;;;;;2215522;66;987;-25
2023/04/01 00:43:03;;;;;;;;;;;;;;;;;;2212329;66;1946;-25
2023/04/01 00:45:35;;;;;;;;;;;;;;;;;;2216130;66;1881;-25
2023/04/01 00:48:10;;;;;;;;;;;;;;;;;;2215974;66;1626;-25
2023/04/01 00:50:44;;;;;;;;;;;;;;;;;;2216253;58;2586;-23
2023/04/01 00:53:15;;;;;;;;;;;;;;;;;;2216934;66;1341;-23
2023/04/01 00:55:50;;;;;;;;;;;;;;;;;;2212238;66;1361;-23
2023/04/01 00:58:21;;;;;;;;;;;;;;;;;;2216128;66;1030;-23
2023/04/01 01:00:51;;;;;;;;;;;;;;;;;;2215957;66;1992;-23
2023/04/01 01:03:22;;;;;;;;;;;;;;;;;;2215761;66;1155;-23
2023/04/01 01:06:21;;;;;;;;;;;;;;;;;;2214404;59;2225;-23
2023/04/01 01:08:51;;;;;;;;;;;;;;;;;;2217195;66;1699;-23
2023/04/01 01:11:26;;;;;;;;;;;;;;;;;;2216969;58;1417;-23
2023/04/01 01:14:01;;;;;;;;;;;;;;;;;;2216644;66;1226;-23
2023/04/01 01:16:34;;;;;;;;;;;;;;;;;;2216158;58;1197;-23
2023/04/01 01:19:23;;;;;;;;;;;;;;;;;;2212937;66;1272;-23
2023/04/01 01:22:15;;;;;;;;;;;;;;;;;;2216315;66;1949;-23
2023/04/01 01:24:45;;;;;;;;;;;;;;;;;;2216329;66;1607;-26
2023/04/01 01:27:20;;;;;;;;;;;;;;;;;;2215515;66;1228;-26
2023/04/01 01:30:08;;;;;;;;;;;;;;;;;;2216128;66;1195;-26
2023/04/01 01:32:57;;;;;;;;;;;;;;;;;;2216508;66;1163;-26
2023/04/01 01:35:27;;;;;;;;;;;;;;;;;;2212441;66;1471;-26
2023/04/01 01:38:03;;;;;;;;;;;;;;;;;;2216099;66;1795;-26
2023/04/01 01:40:34;;;;;;;;;;;;;;;;;;2216408;66;1354;-26
2023/04/01 01:43:06;;;;;;;;;;;;;;;;;;2216679;66;1912;-26
2023/04/01 01:45:40;;;;;;;;;;;;;;;;;;2215681;66;1207;-26
2023/04/01 01:48:11;;;;;;;;;;;;;;;;;;2210957;66;2050;-26
2023/04/01 01:50:41;;;;;;;;;;;;;;;;;;2216531;59;1974;-26
2023/04/01 01:53:12;;;;;;;;;;;;;;;;;;2216209;66;1720;-26
2023/04/01 01:55:44;;;;;;;;;;;;;;;;;;2215887;66;1311;-26
2023/04/01 01:58:19;;;;;;;;;;;;;;;;;;2216739;66;1002;-26
2023/04/01 02:00:52;;;;;;;;;;;;;;;;;;2212568;66;1988;-25
2023/04/01 02:03:24;;;;;;;;;;;;;;;;;;2216567;66;1139;-26
2023/04/01 02:05:56;;;;;;;;;;;;;;;;;;2216540;59;1372;-26
2023/04/01 02:08:33;;;;;;;;;;;;;;;;;;2215364;66;1384;-26
2023/04/01 02:11:12;;;;;;;;;;;;;;;;;;2216250;58;1882;-26
2023/04/01 02:13:50;;;;;;;;;;;;;;;;;;2216405;66;1668;-26
2023/04/01 02:16:23;;;;;;;;;;;;;;;;;;2211628;66;1663;-26
2023/04/01 02:18:55;;;;;;;;;;;;;;;;;;2215919;66;1607;-25
2023/04/01 02:21:32;;;;;;;;;;;;;;;;;;2215575;66;1944;-25
2023/04/01 02:24:04;;;;;;;;;;;;;;;;;;2216183;66;1303;-25
2023/04/01 02:26:34;;;;;;;;;;;;;;;;;;2215584;66;1673;-25
2023/04/01 02:29:05;;;;;;;;;;;;;;;;;;2215978;66;1455;-25
2023/04/01 02:31:36;;;;;;;;;;;;;;;;;;2216927;66;1161;-25
2023/04/01 02:34:06;;;;;;;;;;;;;;;;;;2216248;66;1282;-25
2023/04/01 02:36:37;;;;;;;;;;;;;;;;;;2212060;66;1256;-25
2023/04/01 02:39:08;;;;;;;;;;;;;;;;;;2216993;66;1091;-25
2023/04/01 02:41:42;;;;;;;;;;;;;;;;;;2213067;66;1943;-25
2023/04/01 02:44:13;;;;;;;;;;;;;;;;;;2216012;66;1092;-24
2023/04/01 02:46:43;;;;;;;;;;;;;;;;;;2216006;66;1235;-25
2023/04/01 02:49:14;;;;;;;;;;;;;;;;;;2215508;66;1307;-25
2023/04/01 02:51:44;;;;;;;;;;;;;;;;;;2216338;58;1898;-24
2023/04/01 02:54:14;;;;;;;;;;;;;;;;;;2211751;66;1781;-25
2023/04/01 02:56:45;;;;;;;;;;;;;;;;;;2216377;66;1151;-25
2023/04/01 02:59:15;;;;;;;;;;;;;;;;;;2215912;66;1279;-25
2023/04/01 03:01:45;;;;;;;;;;;;;;;;;;2216220;66;1931;-25
2023/04/01 03:04:16;;;;;;;;;;;;;;;;;;2214893;66;1332;-25
2023/04/01 03:06:46;;;;;;;;;;;;;;;;;;2212037;59;3277;-25
2023/04/01 03:09:16;;;;;;;;;;;;;;;;;;2215995;58;1340;-25
2023/04/01 03:11:46;;;;;;;;;;;;;;;;;;2216505;66;1198;-25
2023/04/01 03:14:17;;;;;;;;;;;;;;;;;;2216176;66;1413;-25
2023/04/01 03:16:47;;;;;;;;;;;;;;;;;;2215735;66;1274;-25
2023/04/01 03:19:20;;;;;;;;;;;;;;;;;;2214991;66;1256;-25
2023/04/01 03:21:50;;;;;;;;;;;;;;;;;;2216397;66;2008;-25
2023/04/01 03:24:21;;;;;;;;;;;;;;;;;;2216976;66;1156;-25
2023/04/01 03:26:51;;;;;;;;;;;;;;;;;;2212711;66;1357;-25
2023/04/01 03:29:21;;;;;;;;;;;;;;;;;;2215928;66;1296;-25
2023/04/01 03:31:51;;;;;;;;;;;;;;;;;;2216442;66;1025;-25
2023/04/01 03:34:21;;;;;;;;;;;;;;;;;;2215650;66;2333;-25
2023/04/01 03:36:52;;;;;;;;;;;;;;;;;;2216285;66;1907;-25
2023/04/01 03:39:22;;;;;;;;;;;;;;;;;;2215649;66;1376;-25
2023/04/01 03:41:52;;;;;;;;;;;;;;;;;;2215756;66;1936;-24
2023/04/01 03:44:23;;;;;;;;;;;;;;;;;;2215857;66;1407;-25
2023/04/01 03:46:53;;;;;;;;;;;;;;;;;;2215129;59;1373;-24
2023/04/01 03:49:23;;;;;;;;;;;;;;;;;;2215915;58;1968;-25
2023/04/01 03:51:53;;;;;;;;;;;;;;;;;;2216030;59;1394;-25
2023/04/01 03:54:23;;;;;;;;;;;;;;;;;;2216322;66;1108;-25
2023/04/01 03:56:54;;;;;;;;;;;;;;;;;;2215454;66;1198;-25
2023/04/01 03:59:25;;;;;;;;;;;;;;;;;;2215321;66;1370;-25
2023/04/01 04:01:55;;;;;;;;;;;;;;;;;;2216789;66;1943;-25
2023/04/01 04:04:26;;;;;;;;;;;;;;;;;;2210560;66;1354;-25
2023/04/01 04:06:56;;;;;;;;;;;;;;;;;;2212772;59;1831;-24
2023/04/01 04:09:26;;;;;;;;;;;;;;;;;;2215514;59;1312;-24
2023/04/01 04:11:57;;;;;;;;;;;;;;;;;;2216679;66;1370;-25
2023/04/01 04:14:27;;;;;;;;;;;;;;;;;;2210096;66;1350;-24
2023/04/01 04:16:57;;;;;;;;;;;;;;;;;;2215684;58;1284;-25
2023/04/01 04:19:33;;;;;;;;;;;;;;;;;;2215168;66;1151;-24
2023/04/01 04:22:03;;;;;;;;;;;;;;;;;;2215410;66;1935;-25
2023/04/01 04:24:34;;;;;;;;;;;;;;;;;;2215807;66;1465;-24
2023/04/01 04:27:04;;;;;;;;;;;;;;;;;;2213505;66;1335;-24
2023/04/01 04:29:35;;;;;;;;;;;;;;;;;;2216020;66;1375;-25
2023/04/01 04:32:05;;;;;;;;;;;;;;;;;;2216327;66;1450;-25
2023/04/01 04:34:35;;;;;;;;;;;;;;;;;;2216893;66;1155;-24
2023/04/01 04:37:06;;;;;;;;;;;;;;;;;;2216100;66;1692;-25
2023/04/01 04:39:36;;;;;;;;;;;;;;;;;;2215607;66;1100;-25
2023/04/01 04:42:06;;;;;;;;;;;;;;;;;;2216581;66;1920;-25
2023/04/01 04:44:36;;;;;;;;;;;;;;;;;;2216997;66;1126;-25
2023/04/01 04:47:06;;;;;;;;;;;;;;;;;;2216858;66;1307;-25
2023/04/01 04:49:37;;;;;;;;;;;;;;;;;;2216679;59;1141;-25
2023/04/01 04:52:07;;;;;;;;;;;;;;;;;;2217122;58;1778;-25
2023/04/01 04:54:37;;;;;;;;;;;;;;;;;;2210641;66;1160;-25
2023/04/01 04:57:08;;;;;;;;;;;;;;;;;;2216241;66;2460;-24
2023/04/01 04:59:38;;;;;;;;;;;;;;;;;;2212725;59;2067;-25
2023/04/01 05:02:08;;;;;;;;;;;;;;;;;;2216751;66;1936;-25
2023/04/01 05:04:38;;;;;;;;;;;;;;;;;;2217093;66;1240;-25
2023/04/01 05:07:09;;;;;;;;;;;;;;;;;;2218848;53;3724;-19
2023/04/01 05:09:40;;;;;;;;;;;;;;;;;;2217975;66;1375;-20
2023/04/01 05:12:12;;;;;;;;;;;;;;;;;;2219822;66;1760;-19
2023/04/01 05:14:43;;;;;;;;;;;;;;;;;;2219001;59;1143;-20
2023/04/01 05:17:13;;;;;;;;;;;;;;;;;;2216585;66;1713;-19
2023/04/01 05:19:43;;;;;;;;;;;;;;;;;;2215235;66;1882;-20
2023/04/01 05:22:14;;;;;;;;;;;;;;;;;;2216155;66;1984;-19
2023/04/01 05:24:45;;;;;;;;;;;;;;;;;;2216131;66;1164;-20
2023/04/01 05:27:15;;;;;;;;;;;;;;;;;;2215671;66;1983;-19
2023/04/01 05:29:45;;;;;;;;;;;;;;;;;;2216946;66;1199;-19
2023/04/01 05:32:16;;;;;;;;;;;;;;;;;;2211476;66;1204;-20
2023/04/01 05:34:46;;;;;;;;;;;;;;;;;;2216402;66;1839;-19
2023/04/01 05:37:17;;;;;;;;;;;;;;;;;;2213099;66;1237;-20
2023/04/01 05:39:47;;;;;;;;;;;;;;;;;;2213484;67;1220;-20
2023/04/01 05:42:17;;;;;;;;;;;;;;;;;;2217374;66;1923;-19
2023/04/01 05:44:48;;;;;;;;;;;;;;;;;;2216123;66;1301;-20
2023/04/01 05:47:18;;;;;;;;;;;;;;;;;;2212245;66;1437;-20
2023/04/01 05:49:48;;;;;;;;;;;;;;;;;;2215977;66;2021;-20
2023/04/01 05:52:19;;;;;;;;;;;;;;;;;;2212354;66;1335;-20
2023/04/01 05:54:49;;;;;;;;;;;;;;;;;;2216269;66;1277;-19
2023/04/01 05:57:19;;;;;;;;;;;;;;;;;;2216647;66;1281;-19
2023/04/01 05:59:50;;;;;;;;;;;;;;;;;;2216198;66;1210;-20
2023/04/01 06:02:20;;;;;;;;;;;;;;;;;;2216076;66;1928;-20
2023/04/01 06:04:54;;;;;;;;;;;;;;;;;;2216165;66;1211;-20
2023/04/01 06:07:27;;;;;;;;;;;;;;;;;;2215335;59;1302;-20
2023/04/01 06:09:58;;;;;;;;;;;;;;;;;;2211422;59;1424;-20
2023/04/01 06:12:28;;;;;;;;;;;;;;;;;;2216255;66;1252;-20
2023/04/01 06:15:18;;;;;;;;;;;;;;;;;;2215576;66;1321;-20
2023/04/01 06:18:07;;;;;;;;;;;;;;;;;;2215722;66;1230;-20
2023/04/01 06:20:44;;;;;;;;;;;;;;;;;;2216173;66;1366;-20
2023/04/01 06:23:33;;;;;;;;;;;;;;;;;;2214535;66;1988;-20
2023/04/01 06:26:03;;;;;;;;;;;;;;;;;;2215509;66;1360;-20
2023/04/01 06:28:34;;;;;;;;;;;;;;;;;;2216833;66;1785;-20
2023/04/01 06:31:15;;;;;;;;;;;;;;;;;;2212172;67;1703;-20
2023/04/01 06:33:56;;;;;;;;;;;;;;;;;;2216705;59;1499;-20
2023/04/01 06:36:26;;;;;;;;;;;;;;;;;;2211719;66;1598;-20
2023/04/01 06:39:18;;;;;;;;;;;;;;;;;;2215636;66;1223;-20
2023/04/01 06:41:57;;;;;;;;;;;;;;;;;;2212109;67;1973;-20
2023/04/01 06:44:48;;;;;;;;;;;;;;;;;;2212322;66;1221;-20
2023/04/01 06:47:37;;;;;;;;;;;;;;;;;;2215601;66;1701;-20
2023/04/01 06:50:15;;;;;;;;;;;;;;;;;;2216426;66;1740;-20
2023/04/01 06:52:45;;;;;;;;;;;;;;;;;;2216092;66;1121;-20
2023/04/01 06:55:28;;;;;;;;;;;;;;;;;;2215919;66;1725;-20
2023/04/01 06:58:00;;;;;;;;;;;;;;;;;;2216013;66;1549;-20
2023/04/01 07:00:38;;;;;;;;;;;;;;;;;;2215655;66;1714;-20
2023/04/01 07:03:21;;;;;;;;;;;;;;;;;;2215567;67;2004;-20
2023/04/01 07:05:53;;;;;;;;;;;;;;;;;;2212344;59;1469;-20
2023/04/01 07:08:26;;;;;;;;;;;;;;;;;;2215777;66;1207;-20
2023/04/01 07:10:59;;;;;;;;;;;;;;;;;;2212569;66;1542;-20
2023/04/01 07:13:41;;;;;;;;;;;;;;;;;;2216131;66;1124;-20
2023/04/01 07:16:31;;;;;;;;;;;;;;;;;;2216129;66;1846;-20
2023/04/01 07:19:05;;;;;;;;;;;;;;;;;;2215686;66;2346;-20
2023/04/01 07:21:40;;;;;;;;;;;;;;;;;;2212690;66;1920;-20
2023/04/01 07:24:17;;;;;;;;;;;;;;;;;;2215898;66;1888;-20
2023/04/01 07:26:53;;;;;;;;;;;;;;;;;;2215789;66;1203;-20
2023/04/01 07:29:24;;;;;;;;;;;;;;;;;;2215636;66;1425;-20
2023/04/01 07:31:58;;;;;;;;;;;;;;;;;;2215849;66;1712;-20
2023/04/01 07:34:32;;;;;;;;;;;;;;;;;;2211836;66;1239;-20
2023/04/01 07:37:06;;;;;;;;;;;;;;;;;;2212273;67;1749;-20
2023/04/01 07:39:43;;;;;;;;;;;;;;;;;;2215751;66;2013;-20
2023/04/01 07:42:35;;;;;;;;;;;;;;;;;;2215829;66;1997;-20
2023/04/01 07:45:05;;;;;;;;;;;;;;;;;;2215729;66;1350;-20
2023/04/01 07:47:56;;;;;;;;;;;;;;;;;;2215105;59;1764;-17
2023/04/01 07:50:30;;;;;;;;;;;;;;;;;;2209885;59;1477;-17
2023/04/01 07:53:13;;;;;;;;;;;;;;;;;;2212981;59;1470;-17
2023/04/01 07:55:52;;;;;;;;;;;;;;;;;;2215330;66;1353;-17
2023/04/01 07:58:35;;;;;;;;;;;;;;;;;;2215455;66;1391;-18
2023/04/01 08:01:14;;;;;;;;;;;;;;;;;;2215081;66;1995;-18
2023/04/01 08:03:50;;;;;;;;;;;;;;;;;;2216006;66;1230;-17
2023/04/01 08:06:37;;;;;;;;;;;;;;;;;;2215295;59;1367;-17
2023/04/01 08:09:27;;;;;;;;;;;;;;;;;;2216259;66;1714;-17
2023/04/01 08:12:03;;;;;;;;;;;;;;;;;;2211980;59;1315;-17
2023/04/01 08:14:36;;;;;;;;;;;;;;;;;;2215922;59;1365;-18
2023/04/01 08:17:15;;;;;;;;;;;;;;;;;;2216061;66;1389;-17
2023/04/01 08:20:01;;;;;;;;;;;;;;;;;;2215548;66;1204;-18
2023/04/01 08:22:37;;;;;;;;;;;;;;;;;;2215698;66;1908;-17
2023/04/01 08:25:16;;;;;;;;;;;;;;;;;;2215327;67;1442;-17
2023/04/01 08:28:05;;;;;;;;;;;;;;;;;;2215352;66;1773;-18
2023/04/01 08:30:42;;;;;;;;;;;;;;;;;;2212098;59;1368;-17
2023/04/01 08:33:25;;;;;;;;;;;;;;;;;;2215623;66;1275;-17
2023/04/01 08:36:09;;;;;;;;;;;;;;;;;;2212010;66;1344;-18
2023/04/01 08:38:51;;;;;;;;;;;;;;;;;;2215548;66;1196;-17
2023/04/01 08:41:21;;;;;;;;;;;;;;;;;;2216050;66;1974;-17
2023/04/01 08:44:02;;;;;;;;;;;;;;;;;;2215423;66;1687;-17
2023/04/01 08:46:32;;;;;;;;;;;;;;;;;;2215724;66;1209;-18
2023/04/01 08:49:02;;;;;;;;;;;;;;;;;;2216015;59;2013;-17
2023/04/01 08:51:33;;;;;;;;;;;;;;;;;;2215448;59;1735;-17
2023/04/01 08:54:03;;;;;;;;;;;;;;;;;;2215409;59;1275;-18
2023/04/01 08:56:40;;;;;;;;;;;;;;;;;;2215926;66;1311;-18
2023/04/01 08:59:17;;;;;;;;;;;;;;;;;;2209698;67;1195;-17
2023/04/01 09:02:13;;;;;;;;;;;;;;;;;;2215232;66;1931;-18
2023/04/01 09:05:02;;;;;;;;;;;;;;;;;;2215835;66;1091;-17
2023/04/01 09:07:32;;;;;;;;;;;;;;;;;;2216022;59;1499;-17
2023/04/01 09:10:08;;;;;;;;;;;;;;;;;;2215890;59;1328;-17
2023/04/01 09:13:01;;;;;;;;;;;;;;;;;;2215848;66;1138;-17
2023/04/01 09:15:41;;;;;;;;;;;;;;;;;;2216717;66;2251;-18
2023/04/01 09:18:24;;;;;;;;;;;;;;;;;;2215585;66;2222;-18
2023/04/01 09:21:19;;;;;;;;;;;;;;;;;;2216350;66;1290;-18
2023/04/01 09:23:55;;;;;;;;;;;;;;;;;;2216656;59;1359;-17
2023/04/01 09:26:45;;;;;;;;;;;;;;;;;;2216566;66;1694;-17
2023/04/01 09:29:26;;;;;;;;;;;;;;;;;;2216485;66;1920;-20
2023/04/01 09:32:09;;;;;;;;;;;;;;;;;;2216658;66;1251;-17
2023/04/01 09:34:42;;;;;;;;;;;;;;;;;;2217306;66;1388;-17
2023/04/01 09:37:16;;;;;;;;;;;;;;;;;;2216913;59;1952;-17
2023/04/01 09:40:08;;;;;;;;;;;;;;;;;;2212818;66;1222;-18
2023/04/01 09:42:41;;;;;;;;;;;;;;;;;;2216137;66;1912;-18
2023/04/01 09:45:11;;;;;;;;;;;;;;;;;;2216860;66;1275;-17
2023/04/01 09:47:46;;;;;;;;;;;;;;;;;;2216061;66;1263;-17
2023/04/01 09:50:29;;;;;;;;;;;;;;;;;;2216358;59;1805;-17
2023/04/01 09:53:12;;;;;;;;;;;;;;;;;;2216040;66;1270;-17
2023/04/01 09:55:45;;;;;;;;;;;;;;;;;;2216165;66;1346;-17
2023/04/01 09:58:15;;;;;;;;;;;;;;;;;;2217036;66;1367;-17
2023/04/01 10:01:04;;;;;;;;;;;;;;;;;;2215960;66;1285;-18
2023/04/01 10:03:53;;;;;;;;;;;;;;;;;;2212628;66;1973;-17
2023/04/01 10:06:26;;;;;;;;;;;;;;;;;;2213619;59;1232;-18
2023/04/01 10:09:06;;;;;;;;;;;;;;;;;;2215852;66;1276;-18
2023/04/01 10:11:36;;;;;;;;;;;;;;;;;;2212387;59;1613;-17
2023/04/01 10:14:19;;;;;;;;;;;;;;;;;;2216133;59;1967;-18
2023/04/01 10:17:04;;;;;;;;;;;;;;;;;;2212309;67;1648;-17
2023/04/01 10:20:07;;;;;;;;;;;;;;;;;;2216188;59;1364;-17
2023/04/01 10:22:50;;;;;;;;;;;;;;;;;;2207817;66;1932;-18
2023/04/01 10:25:32;;;;;;;;;;;;;;;;;;2216559;66;1199;-18
2023/04/01 10:28:02;;;;;;;;;;;;;;;;;;2216274;66;1454;-18
2023/04/01 10:30:53;;;;;;;;;;;;;;;;;;2212666;67;1524;-17
2023/04/01 10:33:32;;;;;;;;;;;;;;;;;;2208781;66;1392;-17
2023/04/01 10:36:06;;;;;;;;;;;;;;;;;;2216007;59;2402;-17
2023/04/01 10:38:55;;;;;;;;;;;;;;;;;;2216580;66;1150;-17
2023/04/01 10:41:34;;;;;;;;;;;;;;;;;;2216473;66;1989;-18
2023/04/01 10:44:23;;;;;;;;;;;;;;;;;;2212536;59;1424;-17
2023/04/01 10:46:57;;;;;;;;;;;;;;;;;;2216280;66;1199;-18
2023/04/01 10:49:37;;;;;;;;;;;;;;;;;;2216203;66;1514;-17
2023/04/01 10:52:25;;;;;;;;;;;;;;;;;;2212462;67;1756;-18
2023/04/01 10:55:07;;;;;;;;;;;;;;;;;;2215762;66;1215;-18
2023/04/01 10:57:53;;;;;;;;;;;;;;;;;;2216632;66;1858;-18
2023/04/01 11:00:48;;;;;;;;;;;;;;;;;;2215847;59;2029;-18
2023/04/01 11:03:45;;;;;;;;;;;;;;;;;;2213219;59;1928;-18
2023/04/01 11:06:48;;;;;;;;;;;;;;;;;;2217067;53;2052;-25
2023/04/01 11:09:33;;;;;;;;;;;;;;;;;;2209609;59;2224;-25
2023/04/01 11:12:06;;;;;;;;;;;;;;;;;;2211984;59;1461;-25
2023/04/01 11:14:55;;;;;;;;;;;;;;;;;;2212442;66;1731;-23
2023/04/01 11:17:25;;;;;;;;;;;;;;;;;;2206156;66;1264;-23
2023/04/01 11:20:15;;;;;;;;;;;;;;;;;;2212893;66;1384;-25
2023/04/01 11:22:45;;;;;;;;;;;;;;;;;;2212230;66;1994;-23
2023/04/01 11:25:25;;;;;;;;;;;;;;;;;;2211390;66;1713;-23
2023/04/01 11:28:13;;;;;;;;;;;;;;;;;;2208463;67;1284;-25
2023/04/01 11:30:47;;;;;;;;;;;;;;;;;;2212765;66;1666;-23
2023/04/01 11:33:28;;;;;;;;;;;;;;;;;;2208308;66;1838;-23
2023/04/01 11:36:11;;;;;;;;;;;;;;;;;;2212555;66;1622;-23
2023/04/01 11:38:53;;;;;;;;;;;;;;;;;;2212386;66;1145;-23
2023/04/01 11:41:38;;;;;;;;;;;;;;;;;;2212566;66;2034;-23
2023/04/01 11:44:17;;;;;;;;;;;;;;;;;;2212407;66;1177;-23
2023/04/01 11:47:17;;;;;;;;;;;;;;;;;;2208508;67;1536;-23
2023/04/01 11:49:59;;;;;;;;;;;;;;;;;;2209186;66;1929;-23
2023/04/01 11:52:48;;;;;;;;;;;;;;;;;;2209460;66;1490;-23
2023/04/01 11:55:25;;;;;;;;;;;;;;;;;;2205715;60;1235;-23
2023/04/01 11:58:12;;;;;;;;;;;;;;;;;;2213167;59;1193;-23
2023/04/01 12:00:46;;;;;;;;;;;;;;;;;;2212758;66;1139;-23
2023/04/01 12:03:16;;;;;;;;;;;;;;;;;;2212038;66;1932;-23
2023/04/01 12:06:07;;;;;;;;;;;;;;;;;;2212839;66;2045;-23
2023/04/01 12:08:43;;;;;;;;;;;;;;;;;;2205513;66;1270;-23
2023/04/01 12:11:25;;;;;;;;;;;;;;;;;;2205444;59;1763;-23
2023/04/01 12:14:19;;;;;;;;;;;;;;;;;;2212398;66;1332;-23
2023/04/01 12:16:52;;;;;;;;;;;;;;;;;;2212677;66;1752;-23
2023/04/01 12:19:35;;;;;;;;;;;;;;;;;;2209466;67;1828;-23
2023/04/01 12:22:11;;;;;;;;;;;;;;;;;;2213425;66;1944;-23
2023/04/01 12:24:47;;;;;;;;;;;;;;;;;;2212717;66;1205;-23
2023/04/01 12:27:29;;;;;;;;;;;;;;;;;;2208726;67;1369;-23
2023/04/01 12:30:32;;;;;;;;;;;;;;;;;;2208233;59;1712;-23
2023/04/01 12:33:18;;;;;;;;;;;;;;;;;;2199020;66;2200;-23
2023/04/01 12:35:51;;;;;;;;;;;;;;;;;;2212795;66;1709;-23
2023/04/01 12:38:24;;;;;;;;;;;;;;;;;;2212253;66;1230;-23
2023/04/01 12:41:00;;;;;;;;;;;;;;;;;;2212480;66;1181;-23
2023/04/01 12:43:31;;;;;;;;;;;;;;;;;;2208128;66;1942;-27
2023/04/01 12:46:21;;;;;;;;;;;;;;;;;;2212743;66;1800;-23
2023/04/01 12:49:14;;;;;;;;;;;;;;;;;;2212604;66;1194;-23
2023/04/01 12:51:47;;;;;;;;;;;;;;;;;;2213004;59;1489;-23
2023/04/01 12:54:31;;;;;;;;;;;;;;;;;;2212959;66;1832;-23
2023/04/01 12:57:09;;;;;;;;;;;;;;;;;;2213482;59;1386;-23
2023/04/01 12:59:39;;;;;;;;;;;;;;;;;;2214171;66;1243;-23
2023/04/01 13:02:35;;;;;;;;;;;;;;;;;;2215626;66;1991;-23
2023/04/01 13:05:23;;;;;;;;;;;;;;;;;;2213131;66;1831;-23
2023/04/01 13:07:59;;;;;;;;;;;;;;;;;;2206801;59;1969;-23
2023/04/01 13:10:38;;;;;;;;;;;;;;;;;;2213549;59;1422;-23
2023/04/01 13:13:23;;;;;;;;;;;;;;;;;;2212966;66;1530;-23
2023/04/01 13:16:00;;;;;;;;;;;;;;;;;;2213028;66;1422;-23
2023/04/01 13:18:39;;;;;;;;;;;;;;;;;;2212508;66;1936;-23
2023/04/01 13:21:09;;;;;;;;;;;;;;;;;;2212153;59;1718;-23
2023/04/01 13:23:47;;;;;;;;;;;;;;;;;;2213193;59;2084;-23
2023/04/01 13:26:21;;;;;;;;;;;;;;;;;;2208283;67;1506;-23
2023/04/01 13:28:57;;;;;;;;;;;;;;;;;;2212602;66;1740;-23
2023/04/01 13:31:50;;;;;;;;;;;;;;;;;;2212378;66;1292;-23
2023/04/01 13:34:30;;;;;;;;;;;;;;;;;;2211172;66;1733;-23
2023/04/01 13:37:14;;;;;;;;;;;;;;;;;;2208232;66;1824;-23
2023/04/01 13:39:57;;;;;;;;;;;;;;;;;;2213016;66;1604;-23
2023/04/01 13:42:35;;;;;;;;;;;;;;;;;;2212059;66;1952;-23
2023/04/01 13:45:15;;;;;;;;;;;;;;;;;;2212411;66;1386;-23
2023/04/01 13:47:45;;;;;;;;;;;;;;;;;;2208697;66;1780;-23
2023/04/01 13:50:34;;;;;;;;;;;;;;;;;;2212931;59;1951;-23
2023/04/01 13:53:07;;;;;;;;;;;;;;;;;;2212074;66;1940;-23
2023/04/01 13:55:48;;;;;;;;;;;;;;;;;;2208929;66;1244;-23
2023/04/01 13:58:37;;;;;;;;;;;;;;;;;;2212088;66;1254;-23
2023/04/01 14:01:15;;;;;;;;;;;;;;;;;;2212564;66;1753;-23
2023/04/01 14:03:51;;;;;;;;;;;;;;;;;;2208649;66;2001;-23
2023/04/01 14:06:27;;;;;;;;;;;;;;;;;;2212894;59;1735;-23
2023/04/01 14:09:01;;;;;;;;;;;;;;;;;;2211807;66;1804;-23
2023/04/01 14:11:46;;;;;;;;;;;;;;;;;;2208986;59;1513;-23
2023/04/01 14:14:35;;;;;;;;;;;;;;;;;;2212275;66;1542;-24
2023/04/01 14:17:46;;;;;;;;;;;;;;;;;;2212068;66;1848;-23
2023/04/01 14:20:25;;;;;;;;;;;;;;;;;;2201211;67;1925;-25
2023/04/01 14:23:14;;;;;;;;;;;;;;;;;;2201267;59;1996;-24
2023/04/01 14:26:03;;;;;;;;;;;;;;;;;;2210449;66;2313;-23
2023/04/01 14:28:36;;;;;;;;;;;;;;;;;;2213516;66;1764;-23
2023/04/01 14:31:09;;;;;;;;;;;;;;;;;;2213793;59;1148;-23
2023/04/01 14:33:42;;;;;;;;;;;;;;;;;;2207564;59;1782;-23
2023/04/01 14:36:15;;;;;;;;;;;;;;;;;;2212646;66;1378;-23
2023/04/01 14:39:04;;;;;;;;;;;;;;;;;;2209536;59;2320;-23
2023/04/01 14:41:43;;;;;;;;;;;;;;;;;;2207591;59;2510;-23
2023/04/01 14:44:18;;;;;;;;;;;;;;;;;;2211776;66;1223;-23
2023/04/01 14:47:03;;;;;;;;;;;;;;;;;;2208766;59;2349;-23
2023/04/01 14:49:37;;;;;;;;;;;;;;;;;;2210513;59;2894;-23
2023/04/01 14:52:14;;;;;;;;;;;;;;;;;;2211530;59;1719;-23
2023/04/01 14:54:46;;;;;;;;;;;;;;;;;;2207727;59;2387;-23
2023/04/01 14:57:23;;;;;;;;;;;;;;;;;;2211544;66;2548;-23
2023/04/01 15:00:08;;;;;;;;;;;;;;;;;;2212128;59;2286;-24
2023/04/01 15:02:45;;;;;;;;;;;;;;;;;;2212577;59;1946;-23
2023/04/01 15:05:15;;;;;;;;;;;;;;;;;;2212937;59;2389;-23
2023/04/01 15:08:05;;;;;;;;;;;;;;;;;;2211066;59;2110;-23
2023/04/01 15:10:47;;;;;;;;;;;;;;;;;;2210655;59;2191;-23
2023/04/01 15:13:29;;;;;;;;;;;;;;;;;;2211037;66;1879;-23
2023/04/01 15:16:19;;;;;;;;;;;;;;;;;;2206320;67;1987;-23
2023/04/01 15:18:51;;;;;;;;;;;;;;;;;;2212550;66;1278;-23
2023/04/01 15:21:22;;;;;;;;;;;;;;;;;;2211089;59;1936;-23
2023/04/01 15:24:18;;;;;;;;;;;;;;;;;;2208388;67;1659;-23
2023/04/01 15:26:51;;;;;;;;;;;;;;;;;;2211161;66;2106;-23
2023/04/01 15:29:40;;;;;;;;;;;;;;;;;;2211004;66;1472;-23
2023/04/01 15:32:16;;;;;;;;;;;;;;;;;;2212314;66;1118;-23
2023/04/01 15:35:05;;;;;;;;;;;;;;;;;;2212661;66;1165;-23
2023/04/01 15:37:36;;;;;;;;;;;;;;;;;;2211681;66;1785;-23
2023/04/01 15:40:06;;;;;;;;;;;;;;;;;;2211495;66;1183;-23
2023/04/01 15:42:47;;;;;;;;;;;;;;;;;;2208277;66;1939;-23
2023/04/01 15:45:34;;;;;;;;;;;;;;;;;;2206705;59;1734;-23
2023/04/01 15:48:13;;;;;;;;;;;;;;;;;;2210456;59;2057;-23
2023/04/01 15:50:48;;;;;;;;;;;;;;;;;;2210397;59;3127;-23
2023/04/01 15:53:47;;;;;;;;;;;;;;;;;;2211858;66;1158;-23
2023/04/01 15:56:21;;;;;;;;;;;;;;;;;;2212075;66;1831;-25
2023/04/01 15:58:51;;;;;;;;;;;;;;;;;;2211897;66;1285;-23
2023/04/01 16:01:34;;;;;;;;;;;;;;;;;;2211491;66;1216;-23
2023/04/01 16:04:23;;;;;;;;;;;;;;;;;;2211762;66;1915;-23
2023/04/01 16:06:56;;;;;;;;;;;;;;;;;;2209949;59;1392;-23
2023/04/01 16:09:39;;;;;;;;;;;;;;;;;;2207975;59;2581;-23
2023/04/01 16:12:09;;;;;;;;;;;;;;;;;;2211826;66;1264;-23
2023/04/01 16:14:50;;;;;;;;;;;;;;;;;;2213532;66;1598;-23
2023/04/01 16:17:29;;;;;;;;;;;;;;;;;;2211984;66;1631;-23
2023/04/01 16:20:02;;;;;;;;;;;;;;;;;;2209572;66;1330;-23
2023/04/01 16:22:35;;;;;;;;;;;;;;;;;;2212188;66;1984;-23
2023/04/01 16:25:21;;;;;;;;;;;;;;;;;;2213157;66;1432;-23
2023/04/01 16:27:54;;;;;;;;;;;;;;;;;;2214261;66;1575;-23
2023/04/01 16:30:43;;;;;;;;;;;;;;;;;;2211477;59;2174;-23
2023/04/01 16:33:32;;;;;;;;;;;;;;;;;;2207224;59;2136;-23
2023/04/01 16:36:21;;;;;;;;;;;;;;;;;;2211636;59;2201;-23
2023/04/01 16:39:09;;;;;;;;;;;;;;;;;;2212056;59;1305;-23
2023/04/01 16:41:49;;;;;;;;;;;;;;;;;;2211699;59;2107;-23
2023/04/01 16:44:27;;;;;;;;;;;;;;;;;;2210974;59;2249;-23
2023/04/01 16:47:05;;;;;;;;;;;;;;;;;;2209423;59;2184;-24
2023/04/01 16:49:45;;;;;;;;;;;;;;;;;;2212602;66;2290;-23
2023/04/01 16:52:16;;;;;;;;;;;;;;;;;;2208086;59;2285;-23
2023/04/01 16:55:05;;;;;;;;;;;;;;;;;;2211426;59;2427;-23
2023/04/01 16:57:50;;;;;;;;;;;;;;;;;;2212389;66;1239;-23
2023/04/01 17:00:26;;;;;;;;;;;;;;;;;;2210761;59;2477;-23
2023/04/01 17:02:56;;;;;;;;;;;;;;;;;;2211166;66;1982;-23
2023/04/01 17:05:38;;;;;;;;;;;;;;;;;;2212790;66;2230;-23
2023/04/01 17:08:17;;;;;;;;;;;;;;;;;;2208252;59;2313;-23
2023/04/01 17:10:47;;;;;;;;;;;;;;;;;;2210406;59;2178;-23
2023/04/01 17:13:21;;;;;;;;;;;;;;;;;;2212267;59;2162;-23
2023/04/01 17:16:09;;;;;;;;;;;;;;;;;;2211139;59;2150;-23
2023/04/01 17:18:48;;;;;;;;;;;;;;;;;;2211913;59;1324;-23
2023/04/01 17:21:37;;;;;;;;;;;;;;;;;;2211906;59;2053;-23
2023/04/01 17:24:40;;;;;;;;;;;;;;;;;;2211909;59;2013;-25
2023/04/01 17:27:25;;;;;;;;;;;;;;;;;;2204014;59;2093;-23
2023/04/01 17:30:10;;;;;;;;;;;;;;;;;;2210870;66;1820;-23
2023/04/01 17:32:56;;;;;;;;;;;;;;;;;;2210662;59;2272;-23
2023/04/01 17:35:34;;;;;;;;;;;;;;;;;;2211269;59;2113;-23
2023/04/01 17:38:11;;;;;;;;;;;;;;;;;;2211030;59;2139;-23
2023/04/01 17:41:01;;;;;;;;;;;;;;;;;;2210741;66;2237;-23
2023/04/01 17:43:38;;;;;;;;;;;;;;;;;;2212310;59;2180;-23
2023/04/01 17:46:33;;;;;;;;;;;;;;;;;;2211066;59;2167;-23
2023/04/01 17:49:12;;;;;;;;;;;;;;;;;;2209174;59;2182;-23
2023/04/01 17:51:48;;;;;;;;;;;;;;;;;;2212809;66;1789;-23
2023/04/01 17:54:34;;;;;;;;;;;;;;;;;;2210859;59;2242;-23
2023/04/01 17:57:04;;;;;;;;;;;;;;;;;;2211829;66;1907;-24
2023/04/01 17:59:34;;;;;;;;;;;;;;;;;;2211882;59;2541;-25
2023/04/01 18:02:39;;;;;;;;;;;;;;;;;;2211752;66;1996;-23
2023/04/01 18:05:39;;;;;;;;;;;;;;;;;;2197516;59;2115;-23
2023/04/01 18:08:12;;;;;;;;;;;;;;;;;;2209443;59;2268;-23
2023/04/01 18:10:45;;;;;;;;;;;;;;;;;;2211220;59;2084;-23
2023/04/01 18:13:18;;;;;;;;;;;;;;;;;;2209687;66;1296;-23